createdAt,value
2018-12-23T19:24:59.454Z,13.40
2018-12-23T19:27:58.244Z,10.50
2018-12-23T19:30:46.818Z,6.75
2018-12-23T19:33:33.205Z,9.33
2018-12-23T19:36:07.550Z,12.23
2018-12-23T19:38:39.070Z,8.63
2018-12-23T19:41:34.375Z,8.73
2018-12-23T19:44:39.082Z,7.40
2018-12-23T19:47:13.244Z,8.00
2018-12-23T19:50:02.921Z,4.50
2018-12-23T19:52:59.871Z,9.08
2018-12-23T19:55:52.475Z,8.20
2018-12-23T19:58:55.582Z,5.73
2018-12-23T20:01:44.010Z,9.43
2018-12-23T20:04:15.524Z,6.00
2018-12-23T20:07:18.121Z,10.10
2018-12-23T20:09:55.311Z,6.37
2018-12-23T20:12:38.526Z,5.53
2018-12-23T20:15:25.339Z,5.83
2018-12-23T20:18:08.804Z,6.35
2018-12-23T20:21:02.235Z,7.03
2018-12-23T20:24:07.084Z,8.70
2018-12-23T20:26:51.191Z,7.90
2018-12-23T20:29:55.585Z,5.80
2018-12-23T20:32:30.031Z,5.97
2018-12-23T20:35:10.507Z,6.00
2018-12-23T20:37:57.549Z,6.00
2018-12-23T20:40:50.203Z,5.22
2018-12-23T20:43:24.607Z,5.07
2018-12-23T20:46:17.297Z,7.65
2018-12-23T20:48:58.670Z,5.17
2018-12-23T20:51:35.859Z,5.10
2018-12-23T20:54:27.636Z,3.93
2018-12-23T20:57:16.950Z,2.17
2018-12-23T21:00:16.539Z,4.13
2018-12-23T21:02:59.327Z,2.40
2018-12-23T21:05:39.430Z,3.10
2018-12-23T21:08:27.054Z,2.33
2018-12-23T21:11:15.989Z,2.50
2018-12-23T21:13:49.134Z,2.77
2018-12-23T21:16:35.630Z,4.12
2018-12-23T21:19:12.935Z,3.15
2018-12-23T21:21:53.198Z,2.50
2018-12-23T21:24:41.207Z,1.73
2018-12-23T21:27:18.614Z,2.37
2018-12-23T21:30:02.269Z,1.93
2018-12-23T21:33:08.397Z,2.40
2018-12-23T21:36:00.919Z,2.23
2018-12-23T21:38:50.228Z,1.47
2018-12-23T21:41:27.571Z,1.33
2018-12-23T21:44:05.145Z,1.57
2018-12-23T21:46:55.000Z,1.62
2018-12-23T21:49:49.303Z,1.33
2018-12-23T21:52:45.064Z,1.87
2018-12-23T21:55:33.934Z,1.10
2018-12-23T21:58:29.480Z,2.67
2018-12-23T22:01:10.171Z,1.77
2018-12-23T22:03:56.766Z,1.67
2018-12-23T22:06:36.549Z,2.17
2018-12-23T22:09:19.777Z,1.37
2018-12-23T22:12:01.767Z,1.13
2018-12-23T22:14:31.220Z,2.95
2018-12-23T22:16:59.758Z,0.88
2018-12-23T22:19:28.203Z,1.30
2018-12-23T22:21:56.791Z,1.47
2018-12-23T22:24:26.347Z,0.80
2018-12-23T22:26:54.772Z,0.80
2018-12-23T22:29:23.370Z,0.70
2018-12-23T22:31:56.071Z,0.80
2018-12-23T22:34:24.805Z,1.23
2018-12-23T22:36:53.242Z,1.40
2018-12-23T22:39:21.804Z,0.93
2018-12-23T22:41:50.920Z,1.52
2018-12-23T22:44:19.355Z,1.17
2018-12-23T22:46:50.650Z,1.00
2018-12-23T22:49:19.291Z,1.00
2018-12-23T22:51:48.047Z,0.80
2018-12-23T22:54:16.979Z,0.80
2018-12-23T22:56:48.568Z,1.53
2018-12-23T22:59:17.363Z,0.70
2018-12-23T23:01:45.897Z,0.70
2018-12-23T23:04:14.312Z,0.80
2018-12-23T23:06:42.749Z,0.80
2018-12-23T23:09:12.137Z,0.90
2018-12-23T23:11:40.607Z,1.33
2018-12-23T23:14:09.153Z,0.80
2018-12-23T23:16:37.562Z,1.47
2018-12-23T23:19:05.983Z,0.60
2018-12-23T23:21:34.448Z,0.73
2018-12-23T23:24:03.032Z,2.20
2018-12-23T23:26:32.409Z,0.70
2018-12-23T23:29:00.841Z,1.30
2018-12-23T23:31:29.259Z,0.83
2018-12-23T23:33:57.781Z,0.80
2018-12-23T23:36:27.099Z,1.04
2018-12-23T23:38:55.549Z,0.80
2018-12-23T23:41:23.955Z,0.80
2018-12-23T23:43:52.394Z,0.80
2018-12-23T23:46:20.811Z,0.80
2018-12-23T23:48:49.335Z,0.90
2018-12-23T23:51:17.790Z,1.82
2018-12-23T23:53:46.790Z,0.80
2018-12-23T23:56:15.253Z,1.12
2018-12-23T23:58:43.762Z,1.00
